sensor_id;sensor_type;location;lat;lon;timestamp;temperature;humidity
33863;DHT22;20158;51.436;-2.742;2022-07-23T00:02:22;20.10;59.50
33863;DHT22;20158;51.436;-2.742;2022-07-23T00:04:48;20.00;59.40
33863;DHT22;20158;51.436;-2.742;2022-07-23T00:07:14;20.00;59.50
33863;DHT22;20158;51.436;-2.742;2022-07-23T00:09:40;19.90;59.40
33863;DHT22;20158;51.436;-2.742;2022-07-23T00:12:06;19.90;59.50
33863;DHT22;20158;51.436;-2.742;2022-07-23T00:14:32;19.90;59.60
33863;DHT22;20158;51.436;-2.742;2022-07-23T00:16:58;19.90;59.70
33863;DHT22;20158;51.436;-2.742;2022-07-23T00:19:24;19.80;59.60
33863;DHT22;20158;51.436;-2.742;2022-07-23T00:21:50;19.80;59.70
33863;DHT22;20158;51.436;-2.742;2022-07-23T00:24:16;19.70;59.60
33863;DHT22;20158;51.436;-2.742;2022-07-23T00:26:42;19.70;59.70
33863;DHT22;20158;51.436;-2.742;2022-07-23T00:29:07;19.60;59.50
33863;DHT22;20158;51.436;-2.742;2022-07-23T00:31:33;19.70;59.80
33863;DHT22;20158;51.436;-2.742;2022-07-23T00:34:00;19.60;59.70
33863;DHT22;20158;51.436;-2.742;2022-07-23T00:36:27;19.50;59.60
33863;DHT22;20158;51.436;-2.742;2022-07-23T00:38:53;19.50;59.70
33863;DHT22;20158;51.436;-2.742;2022-07-23T00:41:19;19.40;59.60
33863;DHT22;20158;51.436;-2.742;2022-07-23T00:43:45;19.40;59.70
33863;DHT22;20158;51.436;-2.742;2022-07-23T00:46:11;19.40;59.80
33863;DHT22;20158;51.436;-2.742;2022-07-23T00:48:37;19.30;59.70
33863;DHT22;20158;51.436;-2.742;2022-07-23T00:51:03;19.30;59.80
33863;DHT22;20158;51.436;-2.742;2022-07-23T00:53:29;19.20;59.70
33863;DHT22;20158;51.436;-2.742;2022-07-23T00:55:58;19.20;59.80
33863;DHT22;20158;51.436;-2.742;2022-07-23T00:58:24;19.20;59.90
33863;DHT22;20158;51.436;-2.742;2022-07-23T01:00:50;19.10;59.80
33863;DHT22;20158;51.436;-2.742;2022-07-23T01:03:16;19.00;59.60
33863;DHT22;20158;51.436;-2.742;2022-07-23T01:05:42;19.00;59.70
33863;DHT22;20158;51.436;-2.742;2022-07-23T01:08:09;19.00;59.70
33863;DHT22;20158;51.436;-2.742;2022-07-23T01:10:34;18.90;59.60
33863;DHT22;20158;51.436;-2.742;2022-07-23T01:13:06;18.90;59.70
33863;DHT22;20158;51.436;-2.742;2022-07-23T01:15:34;18.90;59.80
33863;DHT22;20158;51.436;-2.742;2022-07-23T01:18:01;18.90;59.80
33863;DHT22;20158;51.436;-2.742;2022-07-23T01:20:28;18.80;59.70
33863;DHT22;20158;51.436;-2.742;2022-07-23T01:22:54;18.80;59.80
33863;DHT22;20158;51.436;-2.742;2022-07-23T01:25:21;18.70;59.70
33863;DHT22;20158;51.436;-2.742;2022-07-23T01:27:54;18.70;59.80
33863;DHT22;20158;51.436;-2.742;2022-07-23T01:30:20;18.60;59.60
33863;DHT22;20158;51.436;-2.742;2022-07-23T01:32:47;18.60;59.60
33863;DHT22;20158;51.436;-2.742;2022-07-23T01:35:13;18.50;59.60
33863;DHT22;20158;51.436;-2.742;2022-07-23T01:37:40;18.50;59.60
33863;DHT22;20158;51.436;-2.742;2022-07-23T01:40:07;18.40;59.40
33863;DHT22;20158;51.436;-2.742;2022-07-23T01:42:34;18.40;59.60
33863;DHT22;20158;51.436;-2.742;2022-07-23T01:45:00;18.40;59.60
33863;DHT22;20158;51.436;-2.742;2022-07-23T01:47:27;18.40;59.70
33863;DHT22;20158;51.436;-2.742;2022-07-23T01:49:55;18.30;59.60
33863;DHT22;20158;51.436;-2.742;2022-07-23T01:52:43;18.30;59.70
33863;DHT22;20158;51.436;-2.742;2022-07-23T01:55:09;18.20;59.50
33863;DHT22;20158;51.436;-2.742;2022-07-23T01:57:37;18.20;59.60
33863;DHT22;20158;51.436;-2.742;2022-07-23T02:00:05;18.20;59.70
33863;DHT22;20158;51.436;-2.742;2022-07-23T02:02:38;18.10;59.60
33863;DHT22;20158;51.436;-2.742;2022-07-23T02:05:05;18.10;59.70
33863;DHT22;20158;51.436;-2.742;2022-07-23T02:07:31;18.00;59.60
33863;DHT22;20158;51.436;-2.742;2022-07-23T02:09:58;18.00;59.70
33863;DHT22;20158;51.436;-2.742;2022-07-23T02:12:24;18.00;59.70
33863;DHT22;20158;51.436;-2.742;2022-07-23T02:14:50;17.90;59.60
33863;DHT22;20158;51.436;-2.742;2022-07-23T02:17:16;17.90;59.70
33863;DHT22;20158;51.436;-2.742;2022-07-23T02:19:42;17.90;59.70
33863;DHT22;20158;51.436;-2.742;2022-07-23T02:22:08;17.80;59.60
33863;DHT22;20158;51.436;-2.742;2022-07-23T02:24:33;17.80;59.60
33863;DHT22;20158;51.436;-2.742;2022-07-23T02:27:00;17.80;59.70
33863;DHT22;20158;51.436;-2.742;2022-07-23T02:29:26;17.80;59.80
33863;DHT22;20158;51.436;-2.742;2022-07-23T02:31:53;17.70;59.60
33863;DHT22;20158;51.436;-2.742;2022-07-23T02:34:19;17.70;59.70
33863;DHT22;20158;51.436;-2.742;2022-07-23T02:36:45;17.60;59.60
33863;DHT22;20158;51.436;-2.742;2022-07-23T02:39:11;17.60;59.70
33863;DHT22;20158;51.436;-2.742;2022-07-23T02:41:38;17.60;59.80
33863;DHT22;20158;51.436;-2.742;2022-07-23T02:44:04;17.50;59.60
33863;DHT22;20158;51.436;-2.742;2022-07-23T02:46:31;17.50;59.70
33863;DHT22;20158;51.436;-2.742;2022-07-23T02:48:57;17.40;59.60
33863;DHT22;20158;51.436;-2.742;2022-07-23T02:51:23;17.40;59.90
33863;DHT22;20158;51.436;-2.742;2022-07-23T02:53:55;17.30;59.50
33863;DHT22;20158;51.436;-2.742;2022-07-23T02:56:21;17.30;59.60
33863;DHT22;20158;51.436;-2.742;2022-07-23T02:58:47;17.30;59.70
33863;DHT22;20158;51.436;-2.742;2022-07-23T03:01:13;17.20;59.50
33863;DHT22;20158;51.436;-2.742;2022-07-23T03:03:39;17.20;59.60
33863;DHT22;20158;51.436;-2.742;2022-07-23T03:06:05;17.20;59.70
33863;DHT22;20158;51.436;-2.742;2022-07-23T03:08:31;17.20;59.70
33863;DHT22;20158;51.436;-2.742;2022-07-23T03:10:57;17.20;59.80
33863;DHT22;20158;51.436;-2.742;2022-07-23T03:13:23;17.20;59.80
33863;DHT22;20158;51.436;-2.742;2022-07-23T03:15:49;17.10;59.70
33863;DHT22;20158;51.436;-2.742;2022-07-23T03:18:15;17.10;59.70
33863;DHT22;20158;51.436;-2.742;2022-07-23T03:20:41;17.10;59.80
33863;DHT22;20158;51.436;-2.742;2022-07-23T03:23:09;17.10;59.90
33863;DHT22;20158;51.436;-2.742;2022-07-23T03:25:34;17.10;59.90
33863;DHT22;20158;51.436;-2.742;2022-07-23T03:28:00;17.00;59.80
33863;DHT22;20158;51.436;-2.742;2022-07-23T03:30:28;17.00;59.80
33863;DHT22;20158;51.436;-2.742;2022-07-23T03:32:54;17.00;59.90
33863;DHT22;20158;51.436;-2.742;2022-07-23T03:35:20;17.00;59.90
33863;DHT22;20158;51.436;-2.742;2022-07-23T03:38:03;16.90;59.80
33863;DHT22;20158;51.436;-2.742;2022-07-23T03:40:29;16.90;59.80
33863;DHT22;20158;51.436;-2.742;2022-07-23T03:42:56;16.80;59.60
33863;DHT22;20158;51.436;-2.742;2022-07-23T03:45:22;16.80;59.70
33863;DHT22;20158;51.436;-2.742;2022-07-23T03:47:48;16.80;59.80
33863;DHT22;20158;51.436;-2.742;2022-07-23T03:50:14;16.80;59.80
33863;DHT22;20158;51.436;-2.742;2022-07-23T03:52:41;16.70;59.80
33863;DHT22;20158;51.436;-2.742;2022-07-23T03:55:07;16.70;59.80
33863;DHT22;20158;51.436;-2.742;2022-07-23T03:57:33;16.70;59.90
33863;DHT22;20158;51.436;-2.742;2022-07-23T03:59:59;16.70;60.00
33863;DHT22;20158;51.436;-2.742;2022-07-23T04:02:25;16.60;59.80
33863;DHT22;20158;51.436;-2.742;2022-07-23T04:04:51;16.60;59.90
33863;DHT22;20158;51.436;-2.742;2022-07-23T04:07:17;16.50;59.80
33863;DHT22;20158;51.436;-2.742;2022-07-23T04:09:44;16.50;59.80
33863;DHT22;20158;51.436;-2.742;2022-07-23T04:12:10;16.50;60.40
33863;DHT22;20158;51.436;-2.742;2022-07-23T04:14:36;16.50;59.90
33863;DHT22;20158;51.436;-2.742;2022-07-23T04:17:02;16.50;59.90
33863;DHT22;20158;51.436;-2.742;2022-07-23T04:19:28;16.60;60.20
33863;DHT22;20158;51.436;-2.742;2022-07-23T04:22:02;16.50;60.00
33863;DHT22;20158;51.436;-2.742;2022-07-23T04:24:30;16.50;60.00
33863;DHT22;20158;51.436;-2.742;2022-07-23T04:26:57;16.50;60.00
33863;DHT22;20158;51.436;-2.742;2022-07-23T04:29:24;16.50;60.00
33863;DHT22;20158;51.436;-2.742;2022-07-23T04:31:51;16.50;60.00
33863;DHT22;20158;51.436;-2.742;2022-07-23T04:34:17;16.50;60.00
33863;DHT22;20158;51.436;-2.742;2022-07-23T04:36:43;16.50;60.00
33863;DHT22;20158;51.436;-2.742;2022-07-23T04:39:09;16.60;60.20
33863;DHT22;20158;51.436;-2.742;2022-07-23T04:41:35;16.60;60.10
33863;DHT22;20158;51.436;-2.742;2022-07-23T04:44:01;16.60;60.10
33863;DHT22;20158;51.436;-2.742;2022-07-23T04:46:28;16.60;60.10
33863;DHT22;20158;51.436;-2.742;2022-07-23T04:48:55;16.60;60.10
33863;DHT22;20158;51.436;-2.742;2022-07-23T04:51:21;16.70;60.20
33863;DHT22;20158;51.436;-2.742;2022-07-23T04:53:47;16.70;60.20
33863;DHT22;20158;51.436;-2.742;2022-07-23T04:56:13;16.70;60.10
33863;DHT22;20158;51.436;-2.742;2022-07-23T04:58:39;16.70;60.10
33863;DHT22;20158;51.436;-2.742;2022-07-23T05:01:06;16.80;60.20
33863;DHT22;20158;51.436;-2.742;2022-07-23T05:03:34;16.80;60.20
33863;DHT22;20158;51.436;-2.742;2022-07-23T05:06:00;16.80;60.20
33863;DHT22;20158;51.436;-2.742;2022-07-23T05:08:27;16.80;60.70
33863;DHT22;20158;51.436;-2.742;2022-07-23T05:10:55;16.80;60.10
33863;DHT22;20158;51.436;-2.742;2022-07-23T05:13:22;16.90;60.20
33863;DHT22;20158;51.436;-2.742;2022-07-23T05:15:50;17.00;60.30
33863;DHT22;20158;51.436;-2.742;2022-07-23T05:18:17;17.00;60.20
33863;DHT22;20158;51.436;-2.742;2022-07-23T05:20:43;17.10;60.30
33863;DHT22;20158;51.436;-2.742;2022-07-23T05:23:12;17.10;60.20
33863;DHT22;20158;51.436;-2.742;2022-07-23T05:25:40;17.10;60.10
33863;DHT22;20158;51.436;-2.742;2022-07-23T05:28:06;17.20;60.20
33863;DHT22;20158;51.436;-2.742;2022-07-23T05:30:33;17.30;60.30
33863;DHT22;20158;51.436;-2.742;2022-07-23T05:33:01;17.40;60.40
33863;DHT22;20158;51.436;-2.742;2022-07-23T05:35:27;17.40;60.30
33863;DHT22;20158;51.436;-2.742;2022-07-23T05:38:33;17.60;60.50
33863;DHT22;20158;51.436;-2.742;2022-07-23T05:41:00;17.60;60.20
33863;DHT22;20158;51.436;-2.742;2022-07-23T05:43:27;17.70;60.30
33863;DHT22;20158;51.436;-2.742;2022-07-23T05:45:53;17.80;60.30
33863;DHT22;20158;51.436;-2.742;2022-07-23T05:48:19;17.90;60.30
33863;DHT22;20158;51.436;-2.742;2022-07-23T05:50:57;17.90;60.30
33863;DHT22;20158;51.436;-2.742;2022-07-23T05:53:30;18.00;60.30
33863;DHT22;20158;51.436;-2.742;2022-07-23T05:56:19;18.10;60.40
33863;DHT22;20158;51.436;-2.742;2022-07-23T05:58:45;18.20;60.50
33863;DHT22;20158;51.436;-2.742;2022-07-23T06:01:13;18.20;60.30
33863;DHT22;20158;51.436;-2.742;2022-07-23T06:03:46;18.30;60.40
33863;DHT22;20158;51.436;-2.742;2022-07-23T06:06:12;18.40;60.50
33863;DHT22;20158;51.436;-2.742;2022-07-23T06:08:38;18.50;60.50
33863;DHT22;20158;51.436;-2.742;2022-07-23T06:11:06;18.60;60.60
33863;DHT22;20158;51.436;-2.742;2022-07-23T06:13:32;18.60;60.50
33863;DHT22;20158;51.436;-2.742;2022-07-23T06:15:58;18.80;61.10
33863;DHT22;20158;51.436;-2.742;2022-07-23T06:18:24;18.90;61.90
33863;DHT22;20158;51.436;-2.742;2022-07-23T06:20:50;19.10;63.40
33863;DHT22;20158;51.436;-2.742;2022-07-23T06:23:16;19.30;63.60
33863;DHT22;20158;51.436;-2.742;2022-07-23T06:25:42;19.50;64.00
33863;DHT22;20158;51.436;-2.742;2022-07-23T06:28:08;19.70;64.30
33863;DHT22;20158;51.436;-2.742;2022-07-23T06:30:34;20.00;64.80
33863;DHT22;20158;51.436;-2.742;2022-07-23T06:33:02;20.20;65.00
33863;DHT22;20158;51.436;-2.742;2022-07-23T06:35:28;20.60;65.20
33863;DHT22;20158;51.436;-2.742;2022-07-23T06:37:54;20.90;65.30
33863;DHT22;20158;51.436;-2.742;2022-07-23T06:40:21;21.10;65.00
33863;DHT22;20158;51.436;-2.742;2022-07-23T06:42:47;21.50;64.90
33863;DHT22;20158;51.436;-2.742;2022-07-23T06:45:21;21.90;64.60
33863;DHT22;20158;51.436;-2.742;2022-07-23T06:47:47;22.30;63.90
33863;DHT22;20158;51.436;-2.742;2022-07-23T06:50:13;22.60;62.90
33863;DHT22;20158;51.436;-2.742;2022-07-23T06:52:41;23.10;62.60
33863;DHT22;20158;51.436;-2.742;2022-07-23T06:55:07;23.50;62.10
33863;DHT22;20158;51.436;-2.742;2022-07-23T06:57:33;23.80;61.30
33863;DHT22;20158;51.436;-2.742;2022-07-23T06:59:59;23.80;60.80
33863;DHT22;20158;51.436;-2.742;2022-07-23T07:02:25;23.60;60.40
33863;DHT22;20158;51.436;-2.742;2022-07-23T07:04:51;23.30;60.30
33863;DHT22;20158;51.436;-2.742;2022-07-23T07:07:17;23.20;60.50
33863;DHT22;20158;51.436;-2.742;2022-07-23T07:09:42;22.90;60.30
33863;DHT22;20158;51.436;-2.742;2022-07-23T07:12:09;22.80;60.50
33863;DHT22;20158;51.436;-2.742;2022-07-23T07:14:37;22.60;60.50
33863;DHT22;20158;51.436;-2.742;2022-07-23T07:17:03;22.70;60.60
33863;DHT22;20158;51.436;-2.742;2022-07-23T07:19:29;22.70;60.40
33863;DHT22;20158;51.436;-2.742;2022-07-23T07:21:55;22.70;60.40
33863;DHT22;20158;51.436;-2.742;2022-07-23T07:24:21;22.80;60.70
33863;DHT22;20158;51.436;-2.742;2022-07-23T07:26:47;23.00;60.80
33863;DHT22;20158;51.436;-2.742;2022-07-23T07:29:12;23.30;60.80
33863;DHT22;20158;51.436;-2.742;2022-07-23T07:31:38;23.60;60.80
33863;DHT22;20158;51.436;-2.742;2022-07-23T07:34:04;23.90;60.50
33863;DHT22;20158;51.436;-2.742;2022-07-23T07:36:30;24.10;60.30
33863;DHT22;20158;51.436;-2.742;2022-07-23T07:38:56;24.50;60.60
33863;DHT22;20158;51.436;-2.742;2022-07-23T07:41:22;25.00;60.90
33863;DHT22;20158;51.436;-2.742;2022-07-23T07:43:51;25.40;60.40
33863;DHT22;20158;51.436;-2.742;2022-07-23T07:46:18;25.90;60.00
33863;DHT22;20158;51.436;-2.742;2022-07-23T07:48:43;26.30;59.40
33863;DHT22;20158;51.436;-2.742;2022-07-23T07:51:09;26.80;58.60
33863;DHT22;20158;51.436;-2.742;2022-07-23T07:53:35;27.40;57.30
33863;DHT22;20158;51.436;-2.742;2022-07-23T07:56:01;28.10;55.90
33863;DHT22;20158;51.436;-2.742;2022-07-23T07:58:27;28.80;54.70
33863;DHT22;20158;51.436;-2.742;2022-07-23T08:00:53;29.30;53.70
33863;DHT22;20158;51.436;-2.742;2022-07-23T08:03:19;29.80;53.00
33863;DHT22;20158;51.436;-2.742;2022-07-23T08:05:45;30.10;52.40
33863;DHT22;20158;51.436;-2.742;2022-07-23T08:08:11;30.20;52.00
33863;DHT22;20158;51.436;-2.742;2022-07-23T08:10:40;30.10;52.10
33863;DHT22;20158;51.436;-2.742;2022-07-23T08:13:06;29.90;52.10
33863;DHT22;20158;51.436;-2.742;2022-07-23T08:15:32;29.60;52.30
33863;DHT22;20158;51.436;-2.742;2022-07-23T08:17:59;29.40;52.60
33863;DHT22;20158;51.436;-2.742;2022-07-23T08:20:26;29.20;52.60
33863;DHT22;20158;51.436;-2.742;2022-07-23T08:22:56;29.10;52.70
33863;DHT22;20158;51.436;-2.742;2022-07-23T08:25:30;28.90;52.80
33863;DHT22;20158;51.436;-2.742;2022-07-23T08:27:58;28.80;52.80
33863;DHT22;20158;51.436;-2.742;2022-07-23T08:30:24;28.60;53.00
33863;DHT22;20158;51.436;-2.742;2022-07-23T08:37:53;28.20;53.10
33863;DHT22;20158;51.436;-2.742;2022-07-23T08:40:19;28.00;53.50
33863;DHT22;20158;51.436;-2.742;2022-07-23T08:42:47;27.90;53.80
33863;DHT22;20158;51.436;-2.742;2022-07-23T08:45:15;27.90;53.60
33863;DHT22;20158;51.436;-2.742;2022-07-23T08:47:41;28.00;53.50
33863;DHT22;20158;51.436;-2.742;2022-07-23T08:50:10;28.10;53.30
33863;DHT22;20158;51.436;-2.742;2022-07-23T08:52:36;28.10;53.10
33863;DHT22;20158;51.436;-2.742;2022-07-23T08:55:03;28.10;53.00
33863;DHT22;20158;51.436;-2.742;2022-07-23T08:57:29;28.10;53.00
33863;DHT22;20158;51.436;-2.742;2022-07-23T08:59:56;28.00;53.00
33863;DHT22;20158;51.436;-2.742;2022-07-23T09:02:22;28.00;52.90
33863;DHT22;20158;51.436;-2.742;2022-07-23T09:04:48;28.00;52.90
33863;DHT22;20158;51.436;-2.742;2022-07-23T09:07:14;28.00;52.80
33863;DHT22;20158;51.436;-2.742;2022-07-23T09:09:40;28.10;52.80
33863;DHT22;20158;51.436;-2.742;2022-07-23T09:12:08;28.10;53.30
33863;DHT22;20158;51.436;-2.742;2022-07-23T09:14:42;28.20;52.60
33863;DHT22;20158;51.436;-2.742;2022-07-23T09:17:13;28.30;53.00
33863;DHT22;20158;51.436;-2.742;2022-07-23T09:19:40;28.50;52.30
33863;DHT22;20158;51.436;-2.742;2022-07-23T09:22:23;28.50;52.20
33863;DHT22;20158;51.436;-2.742;2022-07-23T09:25:09;28.50;52.00
33863;DHT22;20158;51.436;-2.742;2022-07-23T09:27:55;28.60;52.00
33863;DHT22;20158;51.436;-2.742;2022-07-23T09:30:24;28.60;51.90
33863;DHT22;20158;51.436;-2.742;2022-07-23T09:33:16;28.70;51.90
33863;DHT22;20158;51.436;-2.742;2022-07-23T09:35:53;28.90;51.50
33863;DHT22;20158;51.436;-2.742;2022-07-23T09:38:22;29.20;51.30
33863;DHT22;20158;51.436;-2.742;2022-07-23T09:41:10;29.40;51.10
33863;DHT22;20158;51.436;-2.742;2022-07-23T09:43:36;29.70;50.20
33863;DHT22;20158;51.436;-2.742;2022-07-23T09:46:25;29.80;50.10
33863;DHT22;20158;51.436;-2.742;2022-07-23T09:48:53;29.80;49.50
33863;DHT22;20158;51.436;-2.742;2022-07-23T09:51:20;29.70;49.50
33863;DHT22;20158;51.436;-2.742;2022-07-23T09:53:59;29.60;49.60
33863;DHT22;20158;51.436;-2.742;2022-07-23T09:56:27;29.60;49.60
33863;DHT22;20158;51.436;-2.742;2022-07-23T09:58:53;29.60;49.50
33863;DHT22;20158;51.436;-2.742;2022-07-23T10:01:33;29.60;49.50
33863;DHT22;20158;51.436;-2.742;2022-07-23T10:04:00;29.50;49.40
33863;DHT22;20158;51.436;-2.742;2022-07-23T10:06:48;29.50;49.40
33863;DHT22;20158;51.436;-2.742;2022-07-23T10:09:37;29.40;49.50
33863;DHT22;20158;51.436;-2.742;2022-07-23T10:12:20;29.40;49.60
33863;DHT22;20158;51.436;-2.742;2022-07-23T10:14:59;29.30;49.50
33863;DHT22;20158;51.436;-2.742;2022-07-23T10:17:28;29.20;49.50
33863;DHT22;20158;51.436;-2.742;2022-07-23T10:19:54;29.20;49.50
33863;DHT22;20158;51.436;-2.742;2022-07-23T10:22:23;29.10;49.60
33863;DHT22;20158;51.436;-2.742;2022-07-23T10:25:22;28.90;49.60
33863;DHT22;20158;51.436;-2.742;2022-07-23T10:30:58;28.50;50.00
33863;DHT22;20158;51.436;-2.742;2022-07-23T10:36:32;28.00;50.70
33863;DHT22;20158;51.436;-2.742;2022-07-23T10:39:06;27.80;51.10
33863;DHT22;20158;51.436;-2.742;2022-07-23T10:41:38;27.60;51.40
33863;DHT22;20158;51.436;-2.742;2022-07-23T10:44:20;27.40;51.60
33863;DHT22;20158;51.436;-2.742;2022-07-23T10:47:04;27.20;51.90
33863;DHT22;20158;51.436;-2.742;2022-07-23T10:49:34;27.00;52.40
33863;DHT22;20158;51.436;-2.742;2022-07-23T10:52:21;26.90;52.80
33863;DHT22;20158;51.436;-2.742;2022-07-23T10:54:53;26.60;53.10
33863;DHT22;20158;51.436;-2.742;2022-07-23T10:57:22;26.50;53.40
33863;DHT22;20158;51.436;-2.742;2022-07-23T11:02:31;26.30;54.10
33863;DHT22;20158;51.436;-2.742;2022-07-23T11:05:15;26.30;54.10
33863;DHT22;20158;51.436;-2.742;2022-07-23T11:13:29;26.80;54.00
33863;DHT22;20158;51.436;-2.742;2022-07-23T11:18:55;27.00;54.10
33863;DHT22;20158;51.436;-2.742;2022-07-23T11:24:06;27.20;53.90
33863;DHT22;20158;51.436;-2.742;2022-07-23T11:26:53;27.40;53.90
33863;DHT22;20158;51.436;-2.742;2022-07-23T11:32:01;27.40;53.60
33863;DHT22;20158;51.436;-2.742;2022-07-23T11:36:59;27.30;53.70
33863;DHT22;20158;51.436;-2.742;2022-07-23T11:39:27;27.20;53.90
33863;DHT22;20158;51.436;-2.742;2022-07-23T11:41:54;27.10;54.10
33863;DHT22;20158;51.436;-2.742;2022-07-23T11:44:37;27.00;54.30
33863;DHT22;20158;51.436;-2.742;2022-07-23T11:47:06;26.90;54.60
33863;DHT22;20158;51.436;-2.742;2022-07-23T11:49:33;26.90;54.60
33863;DHT22;20158;51.436;-2.742;2022-07-23T11:54:32;26.70;54.90
33863;DHT22;20158;51.436;-2.742;2022-07-23T11:56:59;26.70;55.10
33863;DHT22;20158;51.436;-2.742;2022-07-23T11:59:28;26.60;55.20
33863;DHT22;20158;51.436;-2.742;2022-07-23T12:02:01;26.60;55.50
33863;DHT22;20158;51.436;-2.742;2022-07-23T12:04:45;26.50;55.70
33863;DHT22;20158;51.436;-2.742;2022-07-23T12:10:17;26.50;56.10
33863;DHT22;20158;51.436;-2.742;2022-07-23T12:12:58;26.50;56.20
33863;DHT22;20158;51.436;-2.742;2022-07-23T12:15:31;26.50;56.30
33863;DHT22;20158;51.436;-2.742;2022-07-23T12:18:00;26.40;56.30
33863;DHT22;20158;51.436;-2.742;2022-07-23T12:20:32;26.40;56.30
33863;DHT22;20158;51.436;-2.742;2022-07-23T12:23:01;26.40;56.50
33863;DHT22;20158;51.436;-2.742;2022-07-23T12:25:36;26.40;56.60
33863;DHT22;20158;51.436;-2.742;2022-07-23T12:33:11;26.80;56.50
33863;DHT22;20158;51.436;-2.742;2022-07-23T12:35:42;26.90;56.30
33863;DHT22;20158;51.436;-2.742;2022-07-23T12:38:11;27.10;56.10
33863;DHT22;20158;51.436;-2.742;2022-07-23T12:43:11;27.50;55.30
33863;DHT22;20158;51.436;-2.742;2022-07-23T12:48:35;27.80;54.80
33863;DHT22;20158;51.436;-2.742;2022-07-23T12:51:07;27.90;54.50
33863;DHT22;20158;51.436;-2.742;2022-07-23T12:53:42;28.00;54.40
33863;DHT22;20158;51.436;-2.742;2022-07-23T12:56:11;27.90;54.40
33863;DHT22;20158;51.436;-2.742;2022-07-23T13:06:30;27.40;55.40
33863;DHT22;20158;51.436;-2.742;2022-07-23T13:08:56;27.40;55.40
33863;DHT22;20158;51.436;-2.742;2022-07-23T13:11:22;27.50;55.40
33863;DHT22;20158;51.436;-2.742;2022-07-23T13:13:49;27.70;55.40
33863;DHT22;20158;51.436;-2.742;2022-07-23T13:16:15;27.70;55.20
33863;DHT22;20158;51.436;-2.742;2022-07-23T13:18:41;27.90;55.20
33863;DHT22;20158;51.436;-2.742;2022-07-23T13:21:07;28.00;55.00
33863;DHT22;20158;51.436;-2.742;2022-07-23T13:23:33;28.20;54.70
33863;DHT22;20158;51.436;-2.742;2022-07-23T13:25:59;28.30;54.50
33863;DHT22;20158;51.436;-2.742;2022-07-23T13:28:25;28.40;54.30
33863;DHT22;20158;51.436;-2.742;2022-07-23T13:30:51;28.30;54.10
33863;DHT22;20158;51.436;-2.742;2022-07-23T13:33:23;28.30;54.20
33863;DHT22;20158;51.436;-2.742;2022-07-23T13:35:50;28.10;54.40
33863;DHT22;20158;51.436;-2.742;2022-07-23T13:38:17;27.90;54.70
33863;DHT22;20158;51.436;-2.742;2022-07-23T13:40:45;27.80;54.90
33863;DHT22;20158;51.436;-2.742;2022-07-23T13:43:13;27.70;55.10
33863;DHT22;20158;51.436;-2.742;2022-07-23T13:45:40;27.60;55.30
33863;DHT22;20158;51.436;-2.742;2022-07-23T13:48:10;27.60;55.50
33863;DHT22;20158;51.436;-2.742;2022-07-23T13:50:37;27.50;55.60
33863;DHT22;20158;51.436;-2.742;2022-07-23T13:53:05;27.50;55.70
33863;DHT22;20158;51.436;-2.742;2022-07-23T13:55:32;27.50;55.80
33863;DHT22;20158;51.436;-2.742;2022-07-23T13:57:58;27.40;55.90
33863;DHT22;20158;51.436;-2.742;2022-07-23T14:00:25;27.50;55.90
33863;DHT22;20158;51.436;-2.742;2022-07-23T14:02:51;27.50;55.90
33863;DHT22;20158;51.436;-2.742;2022-07-23T14:05:17;27.40;56.60
33863;DHT22;20158;51.436;-2.742;2022-07-23T14:07:43;27.30;56.20
33863;DHT22;20158;51.436;-2.742;2022-07-23T14:10:10;27.10;56.40
33863;DHT22;20158;51.436;-2.742;2022-07-23T14:12:37;27.00;56.70
33863;DHT22;20158;51.436;-2.742;2022-07-23T14:15:04;26.90;57.00
33863;DHT22;20158;51.436;-2.742;2022-07-23T14:17:31;27.00;57.30
33863;DHT22;20158;51.436;-2.742;2022-07-23T14:19:58;27.10;57.20
33863;DHT22;20158;51.436;-2.742;2022-07-23T14:22:24;27.20;57.00
33863;DHT22;20158;51.436;-2.742;2022-07-23T14:24:50;27.40;56.80
33863;DHT22;20158;51.436;-2.742;2022-07-23T14:27:16;27.50;56.60
33863;DHT22;20158;51.436;-2.742;2022-07-23T14:29:42;27.60;56.40
33863;DHT22;20158;51.436;-2.742;2022-07-23T14:32:08;27.60;56.20
33863;DHT22;20158;51.436;-2.742;2022-07-23T14:34:35;27.60;56.20
33863;DHT22;20158;51.436;-2.742;2022-07-23T14:37:01;27.50;56.30
33863;DHT22;20158;51.436;-2.742;2022-07-23T14:39:27;27.40;56.50
33863;DHT22;20158;51.436;-2.742;2022-07-23T14:41:53;27.30;56.60
33863;DHT22;20158;51.436;-2.742;2022-07-23T14:44:19;27.30;56.80
33863;DHT22;20158;51.436;-2.742;2022-07-23T14:46:45;27.40;57.00
33863;DHT22;20158;51.436;-2.742;2022-07-23T14:49:11;27.40;56.90
33863;DHT22;20158;51.436;-2.742;2022-07-23T14:51:37;27.50;56.90
33863;DHT22;20158;51.436;-2.742;2022-07-23T14:54:06;27.60;56.80
33863;DHT22;20158;51.436;-2.742;2022-07-23T14:56:32;27.60;56.60
33863;DHT22;20158;51.436;-2.742;2022-07-23T14:58:59;27.60;56.60
33863;DHT22;20158;51.436;-2.742;2022-07-23T15:01:25;27.60;56.70
33863;DHT22;20158;51.436;-2.742;2022-07-23T15:03:51;27.60;56.80
33863;DHT22;20158;51.436;-2.742;2022-07-23T15:06:17;27.60;56.80
33863;DHT22;20158;51.436;-2.742;2022-07-23T15:08:43;27.50;56.80
33863;DHT22;20158;51.436;-2.742;2022-07-23T15:11:09;27.40;56.80
33863;DHT22;20158;51.436;-2.742;2022-07-23T15:13:36;27.30;56.90
33863;DHT22;20158;51.436;-2.742;2022-07-23T15:16:03;27.20;57.00
33863;DHT22;20158;51.436;-2.742;2022-07-23T15:18:30;27.10;57.10
33863;DHT22;20158;51.436;-2.742;2022-07-23T15:20:56;27.10;57.30
33863;DHT22;20158;51.436;-2.742;2022-07-23T15:23:22;27.00;57.40
33863;DHT22;20158;51.436;-2.742;2022-07-23T15:25:48;27.00;57.40
33863;DHT22;20158;51.436;-2.742;2022-07-23T15:28:14;27.00;57.40
33863;DHT22;20158;51.436;-2.742;2022-07-23T15:30:40;27.00;57.50
33863;DHT22;20158;51.436;-2.742;2022-07-23T15:33:06;26.90;57.50
33863;DHT22;20158;51.436;-2.742;2022-07-23T15:35:32;26.90;57.50
33863;DHT22;20158;51.436;-2.742;2022-07-23T15:37:58;26.90;57.40
33863;DHT22;20158;51.436;-2.742;2022-07-23T15:40:24;26.90;57.40
33863;DHT22;20158;51.436;-2.742;2022-07-23T15:42:51;26.80;57.40
33863;DHT22;20158;51.436;-2.742;2022-07-23T15:45:17;26.80;57.50
33863;DHT22;20158;51.436;-2.742;2022-07-23T15:47:43;26.60;57.40
33863;DHT22;20158;51.436;-2.742;2022-07-23T15:50:09;26.50;57.60
33863;DHT22;20158;51.436;-2.742;2022-07-23T15:52:35;26.30;57.70
33863;DHT22;20158;51.436;-2.742;2022-07-23T15:55:02;26.20;58.00
33863;DHT22;20158;51.436;-2.742;2022-07-23T15:57:28;26.00;58.20
33863;DHT22;20158;51.436;-2.742;2022-07-23T15:59:54;25.90;58.40
33863;DHT22;20158;51.436;-2.742;2022-07-23T16:02:23;25.80;58.60
33863;DHT22;20158;51.436;-2.742;2022-07-23T16:04:49;25.70;58.80
33863;DHT22;20158;51.436;-2.742;2022-07-23T16:07:17;25.70;59.00
33863;DHT22;20158;51.436;-2.742;2022-07-23T16:09:43;25.60;59.10
33863;DHT22;20158;51.436;-2.742;2022-07-23T16:12:10;25.60;59.20
33863;DHT22;20158;51.436;-2.742;2022-07-23T16:14:36;25.50;59.20
33863;DHT22;20158;51.436;-2.742;2022-07-23T16:17:02;25.40;59.30